createdAt,value
2018-05-03T00:01:50.726Z,68.00
2018-05-03T00:04:16.721Z,68.30
2018-05-03T00:06:43.462Z,68.50
2018-05-03T00:09:10.180Z,69.70
2018-05-03T00:11:36.199Z,69.70
2018-05-03T00:14:02.181Z,69.50
2018-05-03T00:16:28.170Z,69.90
2018-05-03T00:18:54.914Z,69.40
2018-05-03T00:21:20.919Z,69.40
2018-05-03T00:23:46.917Z,69.60
2018-05-03T00:26:12.913Z,69.50
2018-05-03T00:28:38.912Z,69.60
2018-05-03T00:31:04.925Z,70.00
2018-05-03T00:33:31.801Z,71.10
2018-05-03T00:35:57.791Z,70.40
2018-05-03T00:38:24.553Z,69.70
2018-05-03T00:40:50.547Z,69.70
2018-05-03T00:43:16.542Z,69.60
2018-05-03T00:45:42.573Z,69.00
2018-05-03T00:48:08.582Z,70.10
2018-05-03T00:50:34.597Z,69.70
2018-05-03T00:53:00.581Z,69.40
2018-05-03T00:55:26.602Z,69.40
2018-05-03T00:57:52.630Z,69.90
2018-05-03T01:00:18.750Z,70.90
2018-05-03T01:02:44.749Z,71.90
2018-05-03T01:05:10.749Z,72.30
2018-05-03T01:07:36.737Z,73.30
2018-05-03T01:10:02.738Z,72.90
2018-05-03T01:12:29.478Z,72.30
2018-05-03T01:14:56.225Z,72.80
2018-05-03T01:17:22.981Z,72.70
2018-05-03T01:19:48.981Z,72.80
2018-05-03T01:22:15.705Z,73.40
2018-05-03T01:24:41.854Z,73.50
2018-05-03T01:27:07.868Z,73.60
2018-05-03T01:29:33.856Z,73.20
2018-05-03T01:31:59.841Z,73.60
2018-05-03T01:34:26.561Z,72.70
2018-05-03T01:36:52.565Z,72.80
2018-05-03T01:39:18.565Z,73.40
2018-05-03T01:41:44.549Z,72.90
2018-05-03T01:44:10.553Z,73.40
2018-05-03T01:46:37.287Z,73.20
2018-05-03T01:49:04.030Z,73.30
2018-05-03T01:51:30.881Z,73.10
2018-05-03T01:53:56.927Z,73.10
2018-05-03T01:56:22.949Z,73.50
2018-05-03T01:58:49.033Z,74.00
2018-05-03T02:01:15.104Z,73.90
2018-05-03T02:03:41.097Z,74.00
2018-05-03T02:06:07.115Z,73.60
2018-05-03T02:08:33.862Z,74.10
2018-05-03T02:11:00.609Z,74.80
2018-05-03T02:13:27.337Z,74.30
2018-05-03T02:15:54.188Z,74.60
2018-05-03T02:18:20.916Z,74.40
2018-05-03T02:20:46.909Z,74.40
2018-05-03T02:23:12.901Z,74.70
2018-05-03T02:25:38.914Z,73.90
2018-05-03T02:28:04.912Z,73.50
2018-05-03T02:30:31.657Z,73.60
2018-05-03T02:32:58.470Z,74.30
2018-05-03T02:35:24.477Z,74.30
2018-05-03T02:37:50.471Z,74.10
2018-05-03T02:40:16.514Z,73.90
2018-05-03T02:42:42.497Z,74.30
2018-05-03T02:45:09.234Z,74.80
2018-05-03T02:47:35.973Z,74.40
2018-05-03T02:50:02.733Z,75.30
2018-05-03T02:52:28.722Z,75.30
2018-05-03T02:54:54.725Z,75.30
2018-05-03T02:57:27.036Z,75.00
2018-05-03T02:59:59.993Z,75.00
2018-05-03T03:02:38.413Z,75.10
2018-05-03T03:05:16.885Z,75.10
2018-05-03T03:08:09.109Z,74.50
2018-05-03T03:11:00.897Z,75.40
2018-05-03T03:13:39.321Z,75.50
2018-05-03T03:16:18.473Z,75.50
2018-05-03T03:18:56.853Z,75.50
2018-05-03T03:21:35.254Z,75.70
2018-05-03T03:24:13.595Z,75.80
2018-05-03T03:26:52.731Z,75.90
2018-05-03T03:29:31.109Z,75.90
2018-05-03T03:32:09.365Z,75.50
2018-05-03T03:34:35.385Z,76.00
2018-05-03T03:37:13.874Z,75.80
2018-05-03T03:39:45.993Z,76.20
2018-05-03T03:42:18.053Z,76.40
2018-05-03T03:44:44.053Z,76.30
2018-05-03T03:47:10.822Z,75.90
2018-05-03T03:49:36.822Z,75.80
2018-05-03T03:52:02.828Z,76.00
2018-05-03T03:54:29.569Z,75.50
2018-05-03T03:56:56.337Z,75.90
2018-05-03T03:59:22.326Z,75.90
2018-05-03T04:01:49.081Z,76.80
2018-05-03T04:04:15.806Z,76.80
2018-05-03T04:06:42.573Z,77.30
2018-05-03T04:09:08.582Z,77.00
2018-05-03T04:11:35.326Z,76.80
2018-05-03T04:14:02.069Z,76.30
2018-05-03T04:16:28.075Z,76.40
2018-05-03T04:19:00.897Z,75.80
2018-05-03T04:21:33.041Z,76.20
2018-05-03T04:24:05.962Z,76.40
2018-05-03T04:26:32.078Z,76.40
2018-05-03T04:28:58.077Z,76.40
2018-05-03T04:31:24.808Z,76.20
2018-05-03T04:33:51.627Z,76.40
2018-05-03T04:36:19.108Z,76.30
2018-05-03T04:38:45.849Z,76.60
2018-05-03T04:41:11.816Z,76.50
2018-05-03T04:43:37.821Z,76.10
2018-05-03T04:46:03.835Z,75.50
2018-05-03T04:48:29.859Z,75.80
2018-05-03T04:50:56.585Z,75.90
2018-05-03T04:53:30.401Z,76.30
2018-05-03T04:55:57.137Z,74.60
2018-05-03T04:58:23.877Z,75.70
2018-05-03T05:00:49.881Z,75.80
2018-05-03T05:03:15.881Z,75.30
2018-05-03T05:05:41.897Z,76.50
2018-05-03T05:08:07.882Z,75.90
2018-05-03T05:10:33.946Z,77.10
2018-05-03T05:12:59.942Z,76.30
2018-05-03T05:15:25.949Z,75.90
2018-05-03T05:17:52.733Z,76.40
2018-05-03T05:20:18.888Z,76.50
2018-05-03T05:22:45.018Z,79.00
2018-05-03T05:25:11.021Z,79.80
2018-05-03T05:27:37.829Z,78.80
2018-05-03T05:30:03.854Z,78.80
2018-05-03T05:32:30.049Z,79.80
2018-05-03T05:34:56.794Z,82.70
2018-05-03T05:37:22.809Z,82.70
2018-05-03T05:39:50.409Z,81.70
2018-05-03T05:42:16.396Z,81.60
2018-05-03T05:44:43.145Z,83.80
2018-05-03T05:47:09.877Z,84.90
2018-05-03T05:49:36.802Z,86.40
2018-05-03T05:52:02.854Z,86.40
2018-05-03T05:54:29.594Z,86.70
2018-05-03T05:56:55.649Z,86.70
2018-05-03T05:59:21.663Z,85.30
2018-05-03T06:01:47.666Z,83.80
2018-05-03T06:04:14.556Z,79.90
2018-05-03T06:06:41.229Z,79.20
2018-05-03T06:09:07.222Z,79.20
2018-05-03T06:11:33.205Z,77.20
2018-05-03T06:13:59.194Z,78.20
2018-05-03T06:16:25.937Z,78.70
2018-05-03T06:18:52.180Z,78.60
2018-05-03T06:21:18.260Z,77.90
2018-05-03T06:23:44.267Z,77.90
2018-05-03T06:26:10.269Z,78.00
2018-05-03T06:28:36.258Z,78.60
2018-05-03T06:31:02.253Z,78.40
2018-05-03T06:33:28.564Z,78.80
2018-05-03T06:35:54.648Z,79.50
2018-05-03T06:38:21.438Z,79.90
2018-05-03T06:40:47.425Z,79.90
2018-05-03T06:43:13.430Z,79.50
2018-05-03T06:45:39.422Z,79.50
2018-05-03T06:48:05.449Z,79.00
2018-05-03T06:50:31.433Z,79.50
2018-05-03T06:52:57.448Z,79.30
2018-05-03T06:55:23.561Z,79.50
2018-05-03T06:57:50.314Z,79.50
2018-05-03T07:00:16.305Z,79.50
2018-05-03T07:02:43.061Z,78.40
2018-05-03T07:05:09.789Z,77.00
2018-05-03T07:07:35.809Z,76.90
2018-05-03T07:10:01.853Z,76.50
2018-05-03T07:12:29.337Z,75.10
2018-05-03T07:14:55.345Z,75.10
2018-05-03T07:17:22.071Z,74.40
2018-05-03T07:19:48.802Z,74.40
2018-05-03T07:22:14.802Z,74.40
2018-05-03T07:24:40.794Z,75.20
2018-05-03T07:27:06.798Z,76.00
2018-05-03T07:29:32.828Z,73.90
2018-05-03T07:31:58.808Z,74.60
2018-05-03T07:34:24.838Z,74.30
2018-05-03T07:36:51.579Z,72.60
2018-05-03T07:39:18.335Z,71.50
2018-05-03T07:41:45.072Z,71.60
2018-05-03T07:44:11.818Z,71.00
2018-05-03T07:46:38.553Z,69.60
2018-05-03T07:49:05.317Z,69.60
2018-05-03T07:51:31.326Z,69.60
2018-05-03T07:53:58.078Z,69.20
2018-05-03T07:56:24.069Z,69.40
2018-05-03T07:58:50.078Z,67.90
2018-05-03T08:01:16.071Z,68.20
2018-05-03T08:03:42.075Z,68.40
2018-05-03T08:06:08.114Z,68.20
2018-05-03T08:08:34.902Z,67.10
2018-05-03T08:11:00.985Z,67.10
2018-05-03T08:13:27.701Z,66.60
2018-05-03T08:15:53.754Z,66.60
2018-05-03T08:18:19.772Z,67.30
2018-05-03T08:20:45.761Z,66.00
2018-05-03T08:23:12.501Z,66.70
2018-05-03T08:25:38.541Z,66.80
2018-05-03T08:28:04.545Z,66.40
2018-05-03T08:30:31.269Z,66.70
2018-05-03T08:32:58.018Z,64.90
2018-05-03T08:35:24.745Z,64.50
2018-05-03T08:37:50.765Z,64.60
2018-05-03T08:40:16.748Z,62.50
2018-05-03T08:42:42.731Z,60.60
2018-05-03T08:45:09.484Z,61.30
2018-05-03T08:47:36.201Z,61.50
2018-05-03T08:50:02.942Z,60.80
2018-05-03T08:52:29.669Z,59.40
2018-05-03T08:54:55.678Z,60.00
2018-05-03T08:57:22.587Z,60.60
2018-05-03T08:59:48.613Z,59.80
2018-05-03T09:02:14.609Z,59.50
2018-05-03T09:04:41.469Z,57.60
2018-05-03T09:07:07.456Z,57.60
2018-05-03T09:09:33.467Z,58.00
2018-05-03T09:11:59.461Z,58.80
2018-05-03T09:14:26.414Z,57.20
2018-05-03T09:16:53.358Z,56.90
2018-05-03T09:19:19.368Z,57.50
2018-05-03T09:21:46.305Z,58.30
2018-05-03T09:24:14.075Z,56.40
2018-05-03T09:26:40.077Z,56.30
2018-05-03T09:29:06.722Z,55.80
2018-05-03T09:31:32.705Z,54.50
2018-05-03T09:33:58.725Z,55.30
2018-05-03T09:36:24.885Z,52.00
2018-05-03T09:38:51.169Z,52.60
2018-05-03T09:41:17.158Z,53.20
2018-05-03T09:43:44.078Z,50.80
2018-05-03T09:46:10.802Z,49.40
2018-05-03T09:48:37.441Z,49.30
2018-05-03T09:51:04.402Z,49.20
2018-05-03T09:53:31.758Z,49.10
2018-05-03T09:55:59.125Z,47.50
2018-05-03T09:58:27.711Z,47.50
2018-05-03T10:00:55.632Z,47.10
2018-05-03T10:03:23.442Z,49.20
2018-05-03T10:05:51.237Z,49.20
2018-05-03T10:08:20.221Z,48.80
2018-05-03T10:10:48.037Z,47.40
2018-05-03T10:13:17.900Z,48.00
2018-05-03T10:15:45.177Z,46.90
2018-05-03T10:18:14.501Z,46.40
2018-05-03T10:20:43.617Z,46.40
2018-05-03T10:23:13.796Z,45.80
2018-05-03T10:25:41.814Z,46.50
2018-05-03T10:28:11.854Z,46.30
2018-05-03T10:30:40.673Z,45.20
2018-05-03T10:33:09.325Z,45.20
2018-05-03T10:35:38.579Z,44.30
2018-05-03T10:38:07.488Z,44.60
2018-05-03T10:40:35.973Z,44.40
2018-05-03T10:43:04.680Z,45.40
2018-05-03T10:45:32.321Z,46.20
2018-05-03T10:48:00.942Z,42.50
2018-05-03T10:50:29.858Z,44.40
2018-05-03T10:53:00.465Z,44.40
2018-05-03T10:55:28.809Z,42.20
2018-05-03T10:58:01.384Z,41.40
2018-05-03T11:00:30.689Z,41.10
2018-05-03T11:03:03.015Z,41.70
2018-05-03T11:05:34.382Z,41.60
2018-05-03T11:08:03.705Z,43.10
2018-05-03T11:10:33.081Z,41.90
2018-05-03T11:13:07.078Z,43.80
2018-05-03T11:15:42.326Z,44.90
2018-05-03T11:18:17.813Z,44.90
2018-05-03T11:23:55.318Z,43.60
2018-05-03T11:26:39.061Z,43.00
2018-05-03T11:29:19.510Z,44.30
2018-05-03T11:32:10.558Z,42.80
2018-05-03T12:37:01.377Z,35.50
2018-05-03T12:39:28.338Z,37.30
2018-05-03T12:41:54.353Z,37.20
2018-05-03T12:44:20.330Z,36.40
2018-05-03T12:46:47.091Z,35.20
2018-05-03T12:49:13.833Z,33.40
2018-05-03T12:51:39.832Z,33.30
2018-05-03T12:54:05.830Z,32.10
2018-05-03T12:56:31.921Z,33.30
2018-05-03T12:58:57.925Z,32.10
2018-05-03T13:01:24.683Z,32.30
2018-05-03T13:03:50.669Z,32.30
2018-05-03T13:06:16.703Z,33.70
2018-05-03T13:08:43.433Z,31.20
2018-05-03T13:11:09.433Z,32.00
2018-05-03T13:13:35.438Z,32.80
2018-05-03T13:16:01.594Z,31.20
2018-05-03T13:18:27.785Z,31.40
2018-05-03T13:20:54.205Z,30.40
2018-05-03T13:23:20.333Z,30.60
2018-05-03T13:25:47.081Z,29.90
2018-05-03T13:28:13.135Z,29.80
2018-05-03T13:30:39.157Z,29.80
2018-05-03T13:33:05.154Z,30.70
2018-05-03T13:35:31.163Z,30.60
2018-05-03T13:37:57.160Z,31.40
2018-05-03T13:40:23.913Z,30.40
2018-05-03T13:42:50.481Z,29.80
2018-05-03T13:45:16.483Z,30.60
2018-05-03T13:47:42.493Z,32.40
2018-05-03T13:50:08.457Z,33.10
2018-05-03T13:52:34.460Z,34.50
2018-05-03T13:55:00.441Z,33.50
2018-05-03T13:57:27.306Z,33.10
2018-05-03T13:59:53.410Z,33.10
2018-05-03T14:02:19.418Z,34.20
2018-05-03T14:04:45.406Z,34.20
2018-05-03T14:07:11.548Z,34.50
2018-05-03T14:09:37.441Z,35.60
2018-05-03T14:12:03.453Z,36.40
2018-05-03T14:14:29.521Z,36.00
2018-05-03T14:16:55.533Z,35.30
2018-05-03T14:19:21.635Z,33.10
2018-05-03T14:21:47.598Z,33.00
2018-05-03T14:24:13.593Z,33.40
2018-05-03T14:26:39.601Z,33.80
2018-05-03T14:29:05.597Z,33.00
2018-05-03T14:31:31.598Z,33.30
2018-05-03T14:33:57.589Z,33.60
2018-05-03T14:36:23.632Z,30.10
2018-05-03T14:38:49.629Z,31.90
2018-05-03T14:41:15.630Z,30.00
2018-05-03T14:43:42.553Z,30.30
2018-05-03T14:46:08.596Z,30.30
2018-05-03T14:48:34.583Z,29.90
2018-05-03T14:51:00.598Z,30.10
2018-05-03T14:53:26.578Z,30.40
2018-05-03T14:55:52.584Z,30.80
2018-05-03T14:58:18.578Z,31.40
2018-05-03T15:00:44.557Z,30.80
2018-05-03T15:03:10.560Z,30.60
2018-05-03T15:05:36.535Z,29.10
2018-05-03T15:08:02.545Z,28.20
2018-05-03T15:10:28.514Z,27.70
2018-05-03T15:12:54.515Z,28.90
2018-05-03T15:15:20.484Z,28.70
2018-05-03T15:17:46.487Z,29.10
2018-05-03T15:20:13.210Z,29.10
2018-05-03T15:22:39.220Z,29.10
2018-05-03T15:25:05.418Z,29.20
2018-05-03T15:27:31.426Z,27.80
2018-05-03T15:29:57.424Z,29.10
2018-05-03T15:32:24.153Z,29.20
2018-05-03T15:34:50.154Z,29.10
2018-05-03T15:37:16.157Z,28.70
2018-05-03T15:39:42.141Z,28.80
2018-05-03T15:42:08.897Z,28.90
2018-05-03T15:44:35.141Z,28.90
2018-05-03T15:47:01.093Z,28.80
2018-05-03T15:49:27.093Z,28.90
2018-05-03T15:51:53.137Z,28.80
2018-05-03T15:54:19.141Z,28.20
2018-05-03T15:56:45.138Z,27.50
2018-05-03T15:59:11.142Z,27.40
2018-05-03T16:01:37.937Z,26.60
2018-05-03T16:04:03.898Z,26.50
2018-05-03T16:06:29.942Z,26.10
2018-05-03T16:08:55.946Z,26.70
2018-05-03T16:11:22.709Z,26.10
2018-05-03T16:13:48.697Z,26.60
2018-05-03T16:16:14.665Z,27.00
2018-05-03T16:18:40.656Z,28.20
2018-05-03T16:21:06.632Z,27.60
2018-05-03T16:23:32.901Z,27.40
2018-05-03T16:25:58.881Z,27.60
2018-05-03T16:28:25.621Z,27.80
2018-05-03T16:30:51.641Z,27.80
2018-05-03T16:33:17.642Z,27.90
2018-05-03T16:35:43.658Z,26.70
2018-05-03T16:38:09.665Z,26.60
2018-05-03T16:40:36.406Z,27.80
2018-05-03T16:43:03.164Z,27.30
2018-05-03T16:45:29.157Z,26.90
2018-05-03T16:47:55.204Z,27.20
2018-05-03T16:50:21.929Z,26.50
2018-05-03T16:52:48.073Z,26.50
2018-05-03T16:55:14.209Z,26.00
2018-05-03T16:57:40.223Z,26.90
2018-05-03T17:00:07.008Z,28.50
2018-05-03T17:02:33.169Z,28.50
2018-05-03T17:04:59.226Z,28.10
2018-05-03T17:07:25.225Z,29.30
2018-05-03T17:09:51.230Z,29.20
2018-05-03T17:12:17.246Z,29.20
2018-05-03T17:14:43.238Z,29.20
2018-05-03T17:17:09.250Z,29.40
2018-05-03T17:19:35.481Z,30.60
2018-05-03T17:22:03.253Z,30.30
2018-05-03T17:24:30.070Z,30.30
2018-05-03T17:26:56.802Z,30.20
2018-05-03T17:29:23.711Z,31.30
2018-05-03T17:31:50.478Z,29.80
2018-05-03T17:34:17.243Z,30.80
2018-05-03T17:36:44.665Z,29.50
2018-05-03T17:39:10.738Z,29.40
2018-05-03T17:41:36.725Z,30.00
2018-05-03T17:44:03.489Z,29.60
2018-05-03T17:46:30.210Z,29.80
2018-05-03T17:48:56.956Z,29.70
2018-05-03T17:51:23.695Z,30.20
2018-05-03T17:53:50.445Z,29.80
2018-05-03T17:56:17.182Z,29.80
2018-05-03T17:58:43.945Z,30.20
2018-05-03T18:01:09.939Z,30.20
2018-05-03T18:03:35.957Z,30.20
2018-05-03T18:06:02.853Z,33.00
2018-05-03T18:08:28.860Z,32.40
2018-05-03T18:10:54.955Z,31.60
2018-05-03T18:13:20.892Z,32.70
2018-05-03T18:15:46.894Z,30.60
2018-05-03T18:18:12.897Z,32.10
2018-05-03T18:20:38.903Z,33.20
2018-05-03T18:23:04.913Z,33.00
2018-05-03T18:25:30.897Z,32.20
2018-05-03T18:27:57.639Z,33.50
2018-05-03T18:30:24.370Z,31.40
2018-05-03T18:32:50.446Z,31.40
2018-05-03T18:35:17.168Z,33.00
2018-05-03T18:37:43.177Z,32.20
2018-05-03T18:40:10.115Z,34.50
2018-05-03T18:42:36.345Z,34.50
2018-05-03T18:45:03.090Z,36.00
2018-05-03T18:47:29.065Z,36.00
2018-05-03T18:49:55.097Z,36.40
2018-05-03T18:52:21.077Z,36.20
2018-05-03T18:54:47.186Z,36.80
2018-05-03T18:57:13.113Z,36.40
2018-05-03T18:59:39.857Z,37.90
2018-05-03T19:02:06.565Z,37.90
2018-05-03T19:04:32.594Z,37.90
2018-05-03T19:06:59.511Z,37.70
2018-05-03T19:09:27.009Z,38.60
2018-05-03T19:11:53.772Z,38.90
2018-05-03T19:14:20.485Z,39.30
2018-05-03T19:16:47.229Z,40.30
2018-05-03T19:19:14.029Z,39.90
2018-05-03T19:21:40.014Z,39.80
2018-05-03T19:24:06.017Z,40.70
2018-05-03T19:26:32.754Z,43.00
2018-05-03T19:28:59.511Z,43.50
2018-05-03T19:31:25.542Z,43.50
2018-05-03T19:33:51.737Z,43.70
2018-05-03T19:36:17.725Z,43.60
2018-05-03T19:38:43.902Z,45.60
2018-05-03T19:41:10.873Z,46.60
2018-05-03T19:43:36.889Z,46.60
2018-05-03T19:46:02.881Z,47.50
2018-05-03T19:48:28.894Z,48.40
2018-05-03T19:50:54.885Z,48.10
2018-05-03T19:53:21.022Z,48.30
2018-05-03T19:55:47.082Z,49.60
2018-05-03T19:58:13.181Z,50.30
2018-05-03T20:00:39.189Z,51.10
2018-05-03T20:03:05.181Z,49.90
2018-05-03T20:05:31.190Z,50.50
2018-05-03T20:07:57.178Z,50.80
2018-05-03T20:10:23.179Z,50.80
2018-05-03T20:12:49.149Z,51.40
2018-05-03T20:15:15.163Z,52.70
2018-05-03T20:17:41.137Z,51.90
2018-05-03T20:20:07.150Z,52.90
2018-05-03T20:22:33.232Z,53.50
2018-05-03T20:24:59.273Z,53.90
2018-05-03T20:27:26.097Z,54.60
2018-05-03T20:29:52.093Z,54.60
2018-05-03T20:32:18.093Z,54.70
2018-05-03T20:34:44.095Z,54.50
2018-05-03T20:37:10.141Z,54.80
2018-05-03T20:39:36.239Z,55.20
2018-05-03T20:42:02.187Z,55.70
2018-05-03T20:44:28.203Z,56.70
2018-05-03T20:46:54.201Z,57.10
2018-05-03T20:49:20.993Z,58.30
2018-05-03T20:51:46.990Z,58.30
2018-05-03T20:54:13.725Z,58.70
2018-05-03T20:56:39.753Z,58.70
2018-05-03T20:59:06.529Z,60.30
2018-05-03T21:01:32.509Z,60.20
2018-05-03T21:03:59.237Z,60.60
2018-05-03T21:06:25.977Z,61.40
2018-05-03T21:08:51.973Z,61.30
2018-05-03T21:11:17.986Z,62.30
2018-05-03T21:13:44.005Z,61.80
2018-05-03T21:16:10.194Z,62.10
2018-05-03T21:18:36.206Z,62.50
2018-05-03T21:21:02.937Z,63.10
2018-05-03T21:23:28.913Z,62.80
2018-05-03T21:25:54.929Z,62.60
2018-05-03T21:28:20.959Z,62.50
2018-05-03T21:30:47.749Z,65.10
2018-05-03T21:33:14.485Z,64.50
2018-05-03T21:35:40.489Z,64.50
2018-05-03T21:38:06.486Z,64.50
2018-05-03T21:40:32.484Z,64.00
2018-05-03T21:42:59.275Z,65.30
2018-05-03T21:45:26.043Z,65.50
2018-05-03T21:47:52.036Z,65.60
2018-05-03T21:50:18.054Z,66.10
2018-05-03T21:52:44.082Z,65.00
2018-05-03T21:55:10.081Z,67.20
2018-05-03T21:57:36.073Z,66.90
2018-05-03T22:00:02.866Z,68.20
2018-05-03T22:02:28.977Z,68.20
2018-05-03T22:04:55.038Z,67.90
2018-05-03T22:07:21.025Z,67.90
2018-05-03T22:09:47.021Z,68.30
2018-05-03T22:12:13.005Z,67.80
2018-05-03T22:14:39.017Z,67.40
2018-05-03T22:17:06.497Z,68.80
2018-05-03T22:19:32.499Z,68.80
2018-05-03T22:21:58.502Z,68.90
2018-05-03T22:24:24.513Z,68.70
2018-05-03T22:26:50.526Z,69.40
2018-05-03T22:29:16.520Z,69.60
2018-05-03T22:31:43.278Z,69.40
2018-05-03T22:34:09.993Z,68.90
2018-05-03T22:36:36.002Z,68.90
2018-05-03T22:39:01.998Z,70.50
2018-05-03T22:41:28.007Z,71.00
2018-05-03T22:43:54.021Z,70.40
2018-05-03T22:46:20.024Z,71.60
2018-05-03T22:48:45.989Z,70.90
2018-05-03T22:51:11.989Z,70.80
2018-05-03T22:53:37.997Z,71.10
2018-05-03T22:56:04.739Z,71.60
2018-05-03T22:58:31.481Z,71.70
2018-05-03T23:00:58.275Z,71.50
2018-05-03T23:03:24.260Z,71.60
2018-05-03T23:05:50.249Z,71.90
2018-05-03T23:08:16.241Z,72.00
2018-05-03T23:10:42.241Z,72.00
2018-05-03T23:13:08.233Z,72.00
2018-05-03T23:15:34.241Z,70.90
2018-05-03T23:18:00.241Z,71.20
2018-05-03T23:20:26.241Z,72.30
2018-05-03T23:22:52.229Z,72.10
2018-05-03T23:25:18.209Z,71.80
2018-05-03T23:27:44.206Z,71.90
2018-05-03T23:30:10.210Z,72.00
2018-05-03T23:32:36.197Z,72.30
2018-05-03T23:35:02.181Z,72.30
2018-05-03T23:37:28.180Z,72.40
2018-05-03T23:39:54.182Z,72.20
2018-05-03T23:42:20.966Z,72.70
2018-05-03T23:44:46.950Z,72.70
2018-05-03T23:47:13.700Z,72.40
2018-05-03T23:49:39.696Z,72.30
2018-05-03T23:52:05.703Z,72.40
2018-05-03T23:54:31.673Z,73.10
2018-05-03T23:56:57.676Z,72.40
2018-05-03T23:59:23.665Z,72.80
